createdAt,value
2018-10-01T00:00:48.403Z,6.20
2018-10-01T00:01:48.741Z,5.40
2018-10-01T00:02:48.260Z,7.40
2018-10-01T00:03:49.168Z,6.90
2018-10-01T00:04:49.525Z,6.70
2018-10-01T00:05:49.214Z,6.80
2018-10-01T00:06:49.909Z,7.40
2018-10-01T00:07:50.127Z,8.00
2018-10-01T00:08:49.929Z,9.80
2018-10-01T00:09:50.773Z,5.70
2018-10-01T00:10:51.034Z,8.50
2018-10-01T00:11:50.766Z,7.90
2018-10-01T00:12:51.644Z,9.10
2018-10-01T00:13:52.052Z,8.50
2018-10-01T00:14:51.448Z,6.90
2018-10-01T00:15:52.661Z,9.60
2018-10-01T00:16:53.011Z,6.80
2018-10-01T00:17:52.678Z,8.40
2018-10-01T00:18:53.625Z,6.10
2018-10-01T00:19:53.967Z,6.20
2018-10-01T00:20:53.748Z,8.00
2018-10-01T00:21:54.668Z,8.10
2018-10-01T00:22:54.985Z,8.20
2018-10-01T00:23:54.606Z,6.30
2018-10-01T00:24:55.328Z,7.30
2018-10-01T00:25:55.508Z,4.90
2018-10-01T00:26:55.148Z,8.40
2018-10-01T00:27:55.679Z,6.80
2018-10-01T00:28:56.006Z,7.50
2018-10-01T00:29:55.569Z,7.00
2018-10-01T00:30:56.203Z,8.00
2018-10-01T00:31:56.623Z,9.70
2018-10-01T00:32:56.025Z,6.10
2018-10-01T00:33:57.426Z,8.70
2018-10-01T00:34:57.474Z,7.60
2018-10-01T00:35:57.108Z,9.50
2018-10-01T00:36:57.867Z,9.40
2018-10-01T00:37:58.151Z,7.70
2018-10-01T00:38:57.598Z,6.00
2018-10-01T00:39:59.150Z,4.50
2018-10-01T00:40:58.827Z,5.70
2018-10-01T00:41:58.396Z,7.10
2018-10-01T00:42:59.207Z,9.80
2018-10-01T00:43:59.291Z,6.40
2018-10-01T00:44:58.874Z,7.20
2018-10-01T00:45:59.658Z,7.00
2018-10-01T00:46:59.914Z,6.00
2018-10-01T00:47:59.462Z,8.50
2018-10-01T00:49:00.188Z,10.00
2018-10-01T00:50:00.339Z,8.70
2018-10-01T00:50:59.825Z,5.50
2018-10-01T00:52:01.383Z,8.40
2018-10-01T00:53:01.037Z,6.90
2018-10-01T00:54:00.367Z,5.90
2018-10-01T00:55:01.770Z,7.00
2018-10-01T00:56:02.143Z,6.30
2018-10-01T00:57:01.709Z,7.20
2018-10-01T00:58:02.631Z,11.10
2018-10-01T00:59:03.021Z,7.60
2018-10-01T01:00:02.753Z,6.80
2018-10-01T01:01:03.717Z,10.10
2018-10-01T01:02:04.027Z,6.50
2018-10-01T01:03:03.504Z,7.80
2018-10-01T01:04:04.599Z,7.00
2018-10-01T01:05:04.504Z,8.80
2018-10-01T01:06:04.882Z,7.10
2018-10-01T01:07:05.415Z,8.00
2018-10-01T01:08:05.296Z,7.80
2018-10-01T01:09:05.557Z,7.30
2018-10-01T01:10:05.891Z,7.00
2018-10-01T01:11:05.798Z,9.00
2018-10-01T01:12:06.164Z,7.30
2018-10-01T01:13:06.737Z,7.50
2018-10-01T01:14:07.396Z,6.30
2018-10-01T01:15:07.032Z,7.80
2018-10-01T01:16:07.579Z,8.80
2018-10-01T01:17:07.487Z,8.80
2018-10-01T01:18:07.655Z,8.60
2018-10-01T01:19:08.135Z,7.80
2018-10-01T01:20:08.375Z,7.80
2018-10-01T01:21:08.761Z,5.50
2018-10-01T01:22:09.290Z,7.50
2018-10-01T01:23:09.296Z,8.40
2018-10-01T01:24:09.087Z,6.90
2018-10-01T01:25:09.416Z,8.90
2018-10-01T01:26:09.921Z,8.20
2018-10-01T01:27:09.976Z,7.60
2018-10-01T01:28:10.225Z,5.80
2018-10-01T01:29:10.616Z,7.10
2018-10-01T01:30:10.676Z,7.40
2018-10-01T01:31:11.177Z,6.70
2018-10-01T01:32:11.601Z,6.40
2018-10-01T01:33:11.798Z,5.90
2018-10-01T01:34:12.090Z,6.60
2018-10-01T01:35:12.540Z,6.20
2018-10-01T01:36:12.697Z,5.40
2018-10-01T01:37:13.040Z,9.80
2018-10-01T01:38:13.148Z,6.60
2018-10-01T01:39:13.168Z,7.80
2018-10-01T01:40:14.073Z,9.50
2018-10-01T01:41:13.911Z,6.60
2018-10-01T01:42:14.174Z,6.40
2018-10-01T01:43:14.541Z,6.30
2018-10-01T01:44:15.057Z,8.50
2018-10-01T01:45:15.033Z,8.80
2018-10-01T01:46:15.294Z,8.10
2018-10-01T01:47:15.463Z,8.10
2018-10-01T01:48:15.622Z,7.40
2018-10-01T01:49:16.029Z,5.50
2018-10-01T01:50:16.598Z,9.50
2018-10-01T01:51:16.299Z,6.30
2018-10-01T01:52:16.691Z,6.70
2018-10-01T01:53:16.343Z,8.50
2018-10-01T01:54:17.043Z,6.50
2018-10-01T01:55:17.610Z,9.30
2018-10-01T01:56:17.185Z,8.20
2018-10-01T01:57:17.566Z,6.00
2018-10-01T01:58:17.783Z,7.50
2018-10-01T01:59:17.304Z,8.80
2018-10-01T02:00:18.207Z,7.40
2018-10-01T02:01:18.559Z,9.20
2018-10-01T02:02:18.278Z,5.80
2018-10-01T02:03:19.174Z,7.70
2018-10-01T02:05:19.156Z,6.30
2018-10-01T02:06:20.100Z,9.70
2018-10-01T02:07:20.440Z,11.40
2018-10-01T02:08:20.176Z,6.90
2018-10-01T02:09:21.217Z,8.70
2018-10-01T02:10:21.269Z,7.40
2018-10-01T02:11:20.558Z,7.70
2018-10-01T02:12:21.513Z,9.70
2018-10-01T02:13:21.956Z,6.10
2018-10-01T02:15:22.442Z,7.00
2018-10-01T02:16:22.788Z,5.40
2018-10-01T02:17:22.569Z,5.30
2018-10-01T02:18:23.515Z,5.40
2018-10-01T02:19:23.626Z,5.90
2018-10-01T02:20:23.032Z,7.50
2018-10-01T02:21:23.968Z,5.80
2018-10-01T02:22:24.457Z,9.30
2018-10-01T02:23:24.116Z,8.00
2018-10-01T02:24:25.164Z,7.40
2018-10-01T02:25:25.222Z,7.60
2018-10-01T02:26:24.202Z,7.90
2018-10-01T02:27:25.598Z,7.20
2018-10-01T02:28:25.914Z,9.50
2018-10-01T02:29:25.554Z,7.30
2018-10-01T02:30:26.427Z,8.90
2018-10-01T02:31:26.752Z,12.60
2018-10-01T02:32:26.377Z,10.00
2018-10-01T02:33:27.231Z,10.80
2018-10-01T02:34:27.614Z,7.90
2018-10-01T02:35:27.257Z,10.00
2018-10-01T02:36:28.252Z,7.10
2018-10-01T02:37:28.638Z,7.40
2018-10-01T02:38:28.435Z,7.80
2018-10-01T02:39:29.885Z,9.80
2018-10-01T02:40:29.691Z,10.40
2018-10-01T02:41:29.440Z,9.20
2018-10-01T02:42:30.172Z,11.00
2018-10-01T02:43:30.519Z,12.20
2018-10-01T02:44:29.975Z,11.00
2018-10-01T02:45:31.301Z,11.00
2018-10-01T02:48:37.783Z,12.00
2018-10-01T02:49:38.162Z,10.60
2018-10-01T02:50:37.799Z,10.30
2018-10-01T02:51:38.870Z,13.00
2018-10-01T02:52:38.878Z,11.20
2018-10-01T02:53:38.244Z,8.80
2018-10-01T02:54:39.489Z,11.60
2018-10-01T02:55:39.439Z,13.40
2018-10-01T02:56:39.089Z,13.10
2018-10-01T02:57:40.099Z,10.90
2018-10-01T02:58:40.272Z,11.60
2018-10-01T02:59:39.298Z,12.30
2018-10-01T03:00:40.239Z,12.00
2018-10-01T03:01:40.714Z,8.80
2018-10-01T03:02:40.066Z,10.10
2018-10-01T03:03:41.502Z,11.90
2018-10-01T03:04:41.560Z,9.60
2018-10-01T03:05:40.897Z,13.80
2018-10-01T03:06:42.277Z,9.80
2018-10-01T03:07:42.622Z,12.00
2018-10-01T03:08:42.238Z,12.80
2018-10-01T03:09:43.453Z,12.10
2018-10-01T03:10:43.293Z,14.10
2018-10-01T03:11:42.867Z,13.40
2018-10-01T03:12:44.242Z,11.00
2018-10-01T03:13:44.744Z,13.40
2018-10-01T03:14:44.304Z,13.00
2018-10-01T03:15:44.929Z,14.60
2018-10-01T03:16:45.187Z,13.90
2018-10-01T03:17:44.649Z,11.20
2018-10-01T03:18:45.833Z,13.50
2018-10-01T03:19:46.043Z,14.40
2018-10-01T03:20:45.392Z,14.40
2018-10-01T03:21:46.583Z,12.40
2018-10-01T03:22:47.010Z,14.20
2018-10-01T03:23:46.365Z,13.00
2018-10-01T03:24:47.555Z,10.30
2018-10-01T03:25:47.945Z,16.70
2018-10-01T03:26:47.345Z,15.60
2018-10-01T03:27:48.534Z,12.20
2018-10-01T03:28:48.875Z,12.00
2018-10-01T03:30:49.228Z,11.60
2018-10-01T03:31:49.661Z,14.50
2018-10-01T03:32:49.366Z,14.10
2018-10-01T03:33:50.241Z,12.00
2018-10-01T03:34:50.785Z,20.50
2018-10-01T03:35:50.063Z,15.20
2018-10-01T03:36:50.834Z,14.80
2018-10-01T03:37:51.552Z,16.40
2018-10-01T03:38:50.863Z,14.90
2018-10-01T03:39:51.693Z,14.00
2018-10-01T03:40:52.118Z,12.10
2018-10-01T03:41:51.792Z,12.90
2018-10-01T03:42:52.635Z,15.00
2018-10-01T03:43:52.924Z,12.90
2018-10-01T03:44:52.528Z,12.90
2018-10-01T03:45:53.381Z,12.00
2018-10-01T03:46:53.756Z,12.80
2018-10-01T03:47:53.390Z,13.70
2018-10-01T03:48:54.174Z,16.60
2018-10-01T03:49:54.672Z,14.80
2018-10-01T03:50:54.109Z,15.80
2018-10-01T03:51:55.180Z,12.30
2018-10-01T03:52:55.638Z,14.40
2018-10-01T03:53:54.992Z,13.90
2018-10-01T03:54:56.251Z,15.50
2018-10-01T03:55:56.667Z,13.10
2018-10-01T03:56:56.292Z,12.70
2018-10-01T03:57:57.137Z,14.00
2018-10-01T03:58:57.297Z,15.20
2018-10-01T03:59:56.833Z,13.40
2018-10-01T04:00:57.625Z,14.40
2018-10-01T04:01:57.756Z,20.10
2018-10-01T04:02:57.273Z,22.00
2018-10-01T04:03:58.694Z,15.70
2018-10-01T04:04:58.852Z,15.10
2018-10-01T04:05:58.168Z,16.70
2018-10-01T04:06:59.576Z,17.20
2018-10-01T04:07:59.665Z,17.80
2018-10-01T04:08:59.265Z,19.40
2018-10-01T04:10:00.411Z,19.90
2018-10-01T04:11:00.419Z,18.80
2018-10-01T04:11:59.926Z,16.00
2018-10-01T04:13:00.852Z,16.60
2018-10-01T04:14:01.004Z,21.20
2018-10-01T04:15:00.316Z,15.30
2018-10-01T04:16:01.871Z,20.10
2018-10-01T04:17:01.510Z,18.20
2018-10-01T04:18:01.041Z,17.10
2018-10-01T04:19:01.786Z,19.20
2018-10-01T04:20:02.173Z,18.60
2018-10-01T04:21:01.119Z,18.20
2018-10-01T04:22:02.594Z,18.00
2018-10-01T04:23:02.909Z,16.10
2018-10-01T04:24:02.540Z,18.30
2018-10-01T04:25:03.474Z,15.40
2018-10-01T04:26:03.891Z,15.50
2018-10-01T04:27:03.731Z,15.50
2018-10-01T04:28:04.276Z,15.00
2018-10-01T04:29:04.392Z,14.60
2018-10-01T04:30:04.073Z,13.50
2018-10-01T04:31:04.565Z,15.20
2018-10-01T04:32:04.706Z,19.50
2018-10-01T04:33:04.431Z,14.40
2018-10-01T04:34:05.107Z,16.80
2018-10-01T04:35:05.058Z,15.10
2018-10-01T04:36:04.872Z,15.90
2018-10-01T04:37:05.386Z,16.20
2018-10-01T04:38:05.482Z,20.70
2018-10-01T04:39:05.065Z,18.60
2018-10-01T04:40:05.729Z,21.60
2018-10-01T04:41:06.057Z,21.60
2018-10-01T04:42:06.284Z,19.60
2018-10-01T04:43:06.703Z,17.60
2018-10-01T04:44:07.256Z,18.20
2018-10-01T04:45:07.418Z,19.10
2018-10-01T04:46:07.889Z,18.20
2018-10-01T04:47:08.261Z,20.10
2018-10-01T04:48:08.684Z,22.60
2018-10-01T04:49:08.976Z,22.90
2018-10-01T04:50:09.574Z,23.50
2018-10-01T04:51:09.931Z,23.90
2018-10-01T04:52:10.413Z,23.70
2018-10-01T04:53:10.682Z,24.50
2018-10-01T04:54:10.853Z,24.60
2018-10-01T04:55:11.213Z,21.60
2018-10-01T04:56:11.574Z,27.40
2018-10-01T04:57:12.073Z,24.40
2018-10-01T04:58:12.188Z,22.70
2018-10-01T04:59:12.455Z,22.90
2018-10-01T05:00:12.517Z,23.10
2018-10-01T05:01:12.831Z,27.70
2018-10-01T05:02:13.297Z,29.90
2018-10-01T05:03:13.483Z,25.20
2018-10-01T05:04:14.318Z,27.30
2018-10-01T05:05:13.712Z,23.10
2018-10-01T05:06:14.327Z,24.00
2018-10-01T05:07:15.029Z,23.90
2018-10-01T05:08:14.699Z,26.30
2018-10-01T05:09:15.310Z,23.40
2018-10-01T05:10:15.607Z,25.70
2018-10-01T05:11:15.802Z,24.50
2018-10-01T05:12:16.231Z,25.10
2018-10-01T05:13:16.515Z,25.10
2018-10-01T05:14:16.789Z,26.20
2018-10-01T05:15:17.018Z,26.50
2018-10-01T05:16:17.241Z,26.50
2018-10-01T05:17:16.895Z,26.30
2018-10-01T05:19:17.868Z,24.90
2018-10-01T05:20:18.431Z,25.20
2018-10-01T05:21:18.222Z,26.60
2018-10-01T05:22:18.706Z,25.10
2018-10-01T05:23:18.360Z,24.50
2018-10-01T05:24:19.171Z,28.90
2018-10-01T05:25:19.731Z,26.30
2018-10-01T05:26:19.073Z,26.00
2018-10-01T05:27:19.913Z,26.60
2018-10-01T05:28:20.303Z,26.70
2018-10-01T05:29:20.110Z,27.30
2018-10-01T05:30:21.068Z,26.70
2018-10-01T05:31:21.547Z,29.70
2018-10-01T05:32:21.233Z,27.10
2018-10-01T05:33:22.279Z,27.30
2018-10-01T05:34:22.125Z,28.30
2018-10-01T05:35:21.855Z,28.00
2018-10-01T05:36:22.736Z,29.30
2018-10-01T05:37:22.973Z,27.60
2018-10-01T05:38:22.647Z,29.60
2018-10-01T05:39:23.688Z,29.30
2018-10-01T05:40:24.206Z,29.00
2018-10-01T05:41:23.444Z,29.80
2018-10-01T05:42:24.420Z,28.70
2018-10-01T05:43:24.932Z,32.20
2018-10-01T05:44:24.094Z,30.50
2018-10-01T05:45:25.222Z,29.40
2018-10-01T05:46:25.264Z,30.40
2018-10-01T05:47:24.673Z,29.60
2018-10-01T05:48:26.047Z,29.30
2018-10-01T05:49:26.472Z,30.30
2018-10-01T05:50:26.042Z,30.30
2018-10-01T05:51:27.012Z,29.70
2018-10-01T05:52:27.493Z,29.50
2018-10-01T05:53:27.159Z,31.50
2018-10-01T05:54:28.021Z,30.20
2018-10-01T05:55:29.040Z,34.90
2018-10-01T05:56:27.405Z,30.20
2018-10-01T05:57:28.666Z,28.80
2018-10-01T05:58:29.117Z,30.90
2018-10-01T05:59:28.757Z,29.50
2018-10-01T06:00:29.951Z,28.60
2018-10-01T06:01:29.736Z,30.60
2018-10-01T06:02:29.199Z,28.20
2018-10-01T06:04:30.453Z,28.10
2018-10-01T06:05:30.042Z,30.00
2018-10-01T06:06:30.996Z,28.40
2018-10-01T06:07:31.373Z,27.90
2018-10-01T06:08:30.745Z,27.30
2018-10-01T06:09:32.113Z,27.80
2018-10-01T06:10:32.462Z,25.30
2018-10-01T06:11:31.822Z,27.60
2018-10-01T06:12:33.239Z,26.20
2018-10-01T06:13:33.803Z,27.90
2018-10-01T06:14:32.863Z,27.10
2018-10-01T06:15:33.811Z,26.50
2018-10-01T06:16:34.410Z,25.80
2018-10-01T06:17:33.607Z,25.80
2018-10-01T06:18:34.599Z,24.60
2018-10-01T06:19:35.058Z,26.10
2018-10-01T06:20:34.802Z,26.00
2018-10-01T06:21:35.677Z,24.80
2018-10-01T06:22:36.134Z,27.40
2018-10-01T06:23:35.874Z,24.90
2018-10-01T06:24:37.024Z,26.80
2018-10-01T06:25:37.030Z,27.40
2018-10-01T06:26:36.739Z,25.90
2018-10-01T06:27:37.714Z,25.10
2018-10-01T06:28:38.073Z,26.90
2018-10-01T06:29:37.720Z,24.60
2018-10-01T06:30:38.757Z,23.80
2018-10-01T06:31:38.645Z,24.60
2018-10-01T06:32:38.274Z,23.20
2018-10-01T06:33:39.279Z,23.40
2018-10-01T06:34:39.736Z,23.60
2018-10-01T06:35:39.476Z,22.90
2018-10-01T06:36:40.490Z,22.20
2018-10-01T06:37:40.523Z,23.20
2018-10-01T06:38:39.853Z,22.20
2018-10-01T06:39:40.762Z,23.50
2018-10-01T06:40:41.138Z,23.90
2018-10-01T06:41:41.059Z,22.70
2018-10-01T06:42:41.889Z,21.00
2018-10-01T06:43:42.195Z,22.80
2018-10-01T06:44:41.515Z,21.30
2018-10-01T06:45:42.855Z,20.50
2018-10-01T06:46:43.199Z,22.70
2018-10-01T06:47:42.752Z,24.20
2018-10-01T06:49:43.875Z,21.40
2018-10-01T06:50:43.439Z,20.90
2018-10-01T06:51:44.197Z,19.50
2018-10-01T06:52:44.545Z,21.50
2018-10-01T06:53:44.069Z,20.30
2018-10-01T06:54:44.665Z,22.80
2018-10-01T06:55:45.002Z,19.70
2018-10-01T06:56:44.465Z,19.30
2018-10-01T06:57:45.718Z,21.30
2018-10-01T06:58:46.231Z,19.10
2018-10-01T06:59:45.377Z,18.40
2018-10-01T07:00:46.321Z,20.80
2018-10-01T07:01:46.870Z,18.10
2018-10-01T07:02:46.029Z,29.30
2018-10-01T07:03:46.822Z,18.90
2018-10-01T07:04:47.217Z,18.10
2018-10-01T07:05:46.627Z,21.10
2018-10-01T07:06:47.718Z,16.30
2018-10-01T07:07:47.892Z,17.80
2018-10-01T07:08:47.553Z,19.60
2018-10-01T07:09:48.308Z,19.40
2018-10-01T07:10:48.622Z,18.70
2018-10-01T07:11:48.356Z,17.40
2018-10-01T07:12:49.413Z,16.10
2018-10-01T07:14:48.591Z,15.90
2018-10-01T07:15:49.434Z,14.30
2018-10-01T07:16:50.157Z,15.00
2018-10-01T07:17:49.390Z,15.70
2018-10-01T07:18:50.323Z,17.50
2018-10-01T07:19:50.556Z,16.40
2018-10-01T07:20:50.305Z,14.30
2018-10-01T07:21:51.072Z,13.30
2018-10-01T07:22:51.452Z,12.00
2018-10-01T07:23:51.130Z,16.70
2018-10-01T07:24:51.963Z,14.70
2018-10-01T07:25:52.473Z,16.20
2018-10-01T07:26:52.119Z,16.20
2018-10-01T07:27:53.124Z,16.60
2018-10-01T07:28:53.449Z,19.60
2018-10-01T07:29:53.087Z,16.70
2018-10-01T07:30:54.036Z,19.10
2018-10-01T07:31:54.291Z,18.90
2018-10-01T07:32:54.009Z,21.00
2018-10-01T07:33:54.833Z,20.00
2018-10-01T07:34:55.301Z,19.50
2018-10-01T07:35:54.670Z,20.60
2018-10-01T07:36:55.716Z,20.70
2018-10-01T07:37:56.354Z,21.50
2018-10-01T07:38:55.366Z,20.70
2018-10-01T07:39:56.561Z,20.60
2018-10-01T07:40:56.720Z,21.50
2018-10-01T07:41:56.658Z,20.80
2018-10-01T07:42:57.597Z,21.30
2018-10-01T07:43:57.862Z,21.80
2018-10-01T07:44:57.618Z,21.40
2018-10-01T07:45:58.549Z,21.20
2018-10-01T07:46:58.358Z,23.80
2018-10-01T07:47:57.941Z,22.10
2018-10-01T07:48:58.800Z,23.60
2018-10-01T07:49:58.741Z,24.40
2018-10-01T07:50:58.818Z,20.10
2018-10-01T07:51:59.879Z,21.40
2018-10-01T07:52:59.970Z,20.50
2018-10-01T07:53:59.518Z,19.00
2018-10-01T07:55:00.308Z,20.70
2018-10-01T07:56:00.409Z,22.10
2018-10-01T07:57:00.148Z,20.90
2018-10-01T07:58:01.373Z,23.00
2018-10-01T07:59:01.211Z,20.50
2018-10-01T08:00:00.965Z,20.90
2018-10-01T08:01:01.530Z,20.30
2018-10-01T08:02:01.902Z,20.60
2018-10-01T08:03:01.476Z,23.10
2018-10-01T08:04:02.467Z,19.80
2018-10-01T08:05:02.303Z,25.20
2018-10-01T08:06:02.062Z,20.90
2018-10-01T08:07:03.288Z,18.30
2018-10-01T08:08:03.046Z,20.30
2018-10-01T08:09:02.918Z,21.10
2018-10-01T08:10:04.131Z,22.70
2018-10-01T08:11:04.515Z,21.70
2018-10-01T08:12:04.206Z,22.50
2018-10-01T08:13:04.744Z,22.10
2018-10-01T08:14:04.542Z,23.00
2018-10-01T08:15:04.799Z,24.10
2018-10-01T08:16:05.436Z,25.60
2018-10-01T08:17:05.559Z,24.50
2018-10-01T08:18:05.926Z,24.40
2018-10-01T08:19:06.354Z,24.10
2018-10-01T08:20:06.814Z,24.80
2018-10-01T08:21:06.992Z,25.50
2018-10-01T08:22:07.345Z,24.50
2018-10-01T08:23:07.768Z,24.80
2018-10-01T08:24:08.114Z,24.50
2018-10-01T08:25:08.576Z,24.30
2018-10-01T08:26:09.127Z,24.20
2018-10-01T08:27:09.320Z,23.50
2018-10-01T08:28:09.755Z,25.10
2018-10-01T08:29:10.230Z,23.60
2018-10-01T08:30:10.378Z,23.00
2018-10-01T08:31:10.946Z,23.10
2018-10-01T08:32:10.880Z,23.10
2018-10-01T08:33:13.861Z,21.80
2018-10-01T08:34:11.153Z,23.50
2018-10-01T08:35:11.691Z,22.20
2018-10-01T08:36:11.982Z,21.70
2018-10-01T08:37:12.284Z,23.70
2018-10-01T08:38:12.780Z,20.30
2018-10-01T08:39:14.115Z,20.40
2018-10-01T08:40:13.584Z,19.20
2018-10-01T08:41:13.342Z,21.10
2018-10-01T08:42:13.466Z,19.50
2018-10-01T08:43:13.508Z,22.00
2018-10-01T08:44:13.886Z,19.60
2018-10-01T08:45:14.124Z,17.70
2018-10-01T08:46:14.319Z,19.60
2018-10-01T08:47:14.888Z,17.60
2018-10-01T08:48:14.517Z,16.10
2018-10-01T08:49:14.947Z,17.10
2018-10-01T08:50:15.029Z,17.40
2018-10-01T08:51:15.178Z,16.50
2018-10-01T08:52:15.388Z,18.40
2018-10-01T08:53:15.099Z,16.20
2018-10-01T08:54:15.690Z,16.60
2018-10-01T08:55:16.235Z,15.60
2018-10-01T08:56:15.973Z,15.10
2018-10-01T08:57:16.627Z,16.30
2018-10-01T08:58:16.878Z,16.30
2018-10-01T08:59:16.829Z,15.60
2018-10-01T09:00:17.529Z,15.20
2018-10-01T09:01:17.901Z,13.90
2018-10-01T09:02:17.467Z,14.10
2018-10-01T09:03:18.101Z,13.00
2018-10-01T09:04:18.399Z,11.80
2018-10-01T09:05:18.154Z,11.60
2018-10-01T09:06:18.792Z,13.70
2018-10-01T09:07:19.411Z,10.70
2018-10-01T09:08:18.593Z,9.00
2018-10-01T09:09:19.650Z,10.50
2018-10-01T09:10:19.574Z,12.50
2018-10-01T09:11:19.375Z,13.60
2018-10-01T09:12:20.136Z,12.40
2018-10-01T09:13:20.488Z,13.00
2018-10-01T09:14:20.248Z,15.50
2018-10-01T09:15:21.217Z,12.10
2018-10-01T09:16:21.716Z,13.80
2018-10-01T09:17:21.058Z,11.00
2018-10-01T09:18:21.891Z,10.80
2018-10-01T09:19:22.344Z,10.80
2018-10-01T09:20:22.165Z,11.10
2018-10-01T09:21:23.084Z,11.70
2018-10-01T09:22:23.553Z,10.00
2018-10-01T09:23:22.864Z,9.70
2018-10-01T09:24:23.768Z,11.60
2018-10-01T09:25:24.149Z,9.60
2018-10-01T09:26:23.800Z,10.40
2018-10-01T09:27:24.739Z,8.50
2018-10-01T09:28:25.224Z,8.30
2018-10-01T09:29:24.458Z,9.20
2018-10-01T09:30:25.579Z,9.50
2018-10-01T09:31:25.521Z,8.30
2018-10-01T09:32:25.409Z,7.40
2018-10-01T09:33:26.309Z,10.60
2018-10-01T09:34:26.301Z,9.10
2018-10-01T09:35:25.914Z,9.50
2018-10-01T09:36:26.651Z,12.80
2018-10-01T09:37:27.294Z,12.00
2018-10-01T09:38:26.268Z,11.10
2018-10-01T09:39:27.630Z,12.00
2018-10-01T09:40:28.063Z,9.20
2018-10-01T09:41:27.643Z,10.30
2018-10-01T09:42:28.477Z,10.50
2018-10-01T09:43:28.779Z,10.50
2018-10-01T09:44:28.356Z,11.20
2018-10-01T09:45:29.497Z,8.90
2018-10-01T09:46:29.503Z,9.60
2018-10-01T09:47:29.061Z,9.80
2018-10-01T09:48:29.829Z,9.50
2018-10-01T09:49:30.137Z,8.70
2018-10-01T09:50:29.587Z,8.60
2018-10-01T09:51:30.799Z,8.90
2018-10-01T09:52:31.262Z,7.20
2018-10-01T09:53:30.835Z,6.20
2018-10-01T09:54:31.611Z,7.30
2018-10-01T09:55:31.857Z,7.20
2018-10-01T09:56:31.484Z,4.80
2018-10-01T09:57:32.401Z,7.80
2018-10-01T09:58:32.825Z,5.10
2018-10-01T09:59:32.233Z,5.30
2018-10-01T10:00:33.750Z,7.40
2018-10-01T10:01:34.048Z,6.60
2018-10-01T10:02:33.752Z,5.70
2018-10-01T10:03:34.651Z,7.60
2018-10-01T10:04:35.126Z,7.00
2018-10-01T10:05:34.761Z,8.60
2018-10-01T10:06:35.666Z,5.00
2018-10-01T10:07:35.956Z,7.30
2018-10-01T10:08:35.744Z,5.80
2018-10-01T10:09:36.605Z,6.00
2018-10-01T10:10:37.318Z,6.20
2018-10-01T10:11:36.399Z,5.60
2018-10-01T10:12:37.492Z,8.50
2018-10-01T10:13:37.971Z,6.90
2018-10-01T10:14:37.671Z,5.80
2018-10-01T10:15:38.618Z,9.70
2018-10-01T10:16:39.185Z,8.60
2018-10-01T10:17:38.271Z,7.60
2018-10-01T10:18:39.358Z,9.00
2018-10-01T10:19:39.307Z,9.40
2018-10-01T10:20:39.086Z,7.00
2018-10-01T10:21:40.201Z,9.10
2018-10-01T10:22:40.274Z,10.10
2018-10-01T10:23:39.881Z,8.70
2018-10-01T10:24:40.662Z,8.70
2018-10-01T10:25:40.998Z,7.90
2018-10-01T10:26:40.600Z,9.10
2018-10-01T10:27:41.610Z,7.00
2018-10-01T10:28:41.964Z,8.90
2018-10-01T10:29:41.609Z,8.10
2018-10-01T10:30:42.422Z,7.80
2018-10-01T10:31:42.874Z,7.80
2018-10-01T10:32:42.493Z,7.90
2018-10-01T10:33:43.292Z,9.40
2018-10-01T10:34:43.700Z,6.90
2018-10-01T10:35:43.000Z,10.30
2018-10-01T10:36:44.225Z,8.20
2018-10-01T10:37:44.647Z,6.80
2018-10-01T10:38:44.049Z,7.30
2018-10-01T10:39:45.292Z,9.00
2018-10-01T10:40:45.567Z,6.30
2018-10-01T10:41:44.927Z,8.10
2018-10-01T10:42:45.926Z,6.00
2018-10-01T10:43:46.316Z,9.70
2018-10-01T10:44:45.734Z,7.10
2018-10-01T10:45:46.921Z,7.30
2018-10-01T10:46:47.521Z,9.30
2018-10-01T10:47:46.652Z,7.10
2018-10-01T10:48:47.331Z,6.90
2018-10-01T10:49:47.747Z,5.90
2018-10-01T10:50:47.276Z,6.20
2018-10-01T10:51:47.862Z,5.40
2018-10-01T10:52:48.128Z,6.10
2018-10-01T10:53:47.753Z,6.50
2018-10-01T10:54:48.452Z,7.10
2018-10-01T10:55:48.907Z,8.10
2018-10-01T10:56:48.643Z,6.70
2018-10-01T10:57:49.372Z,5.80
2018-10-01T10:58:49.998Z,6.20
2018-10-01T10:59:49.209Z,8.20
2018-10-01T11:00:49.955Z,7.80
2018-10-01T11:01:50.466Z,9.90
2018-10-01T11:02:49.688Z,7.90
2018-10-01T11:03:50.627Z,6.10
2018-10-01T11:04:51.299Z,6.70
2018-10-01T11:05:50.562Z,5.40
2018-10-01T11:06:51.518Z,6.00
2018-10-01T11:07:51.982Z,5.40
2018-10-01T11:08:51.422Z,6.20
2018-10-01T11:09:52.377Z,5.40
2018-10-01T11:10:52.602Z,6.40
2018-10-01T11:11:52.292Z,5.20
2018-10-01T11:12:53.207Z,5.10
2018-10-01T11:13:53.712Z,7.20
2018-10-01T11:14:53.409Z,4.10
2018-10-01T11:15:54.268Z,4.70
2018-10-01T11:16:54.739Z,5.70
2018-10-01T11:17:53.952Z,3.90
2018-10-01T11:18:54.869Z,4.60
2018-10-01T11:19:55.007Z,4.40
2018-10-01T11:20:54.742Z,3.90
2018-10-01T11:21:55.453Z,4.70
2018-10-01T11:22:55.629Z,5.50
2018-10-01T11:23:55.175Z,4.60
2018-10-01T11:24:55.854Z,5.90
2018-10-01T11:25:56.189Z,4.00
2018-10-01T11:26:55.568Z,4.60
2018-10-01T11:27:56.765Z,4.00
2018-10-01T11:28:57.026Z,2.70
2018-10-01T11:29:56.567Z,4.60
2018-10-01T11:30:57.362Z,4.40
2018-10-01T11:31:57.579Z,5.60
2018-10-01T11:32:57.051Z,3.50
2018-10-01T11:33:57.937Z,4.80
2018-10-01T11:34:58.437Z,4.30
2018-10-01T11:35:57.625Z,3.20
2018-10-01T11:36:59.308Z,4.00
2018-10-01T11:37:59.015Z,3.80
2018-10-01T11:38:58.610Z,5.30
2018-10-01T11:39:59.409Z,4.20
2018-10-01T11:40:59.429Z,5.50
2018-10-01T11:41:59.007Z,3.50
2018-10-01T11:42:59.825Z,4.00
2018-10-01T11:43:59.991Z,4.90
2018-10-01T11:44:59.547Z,1.70
2018-10-01T11:46:00.641Z,2.30
2018-10-01T11:47:00.333Z,3.40
2018-10-01T11:47:59.883Z,2.40
2018-10-01T11:49:00.785Z,3.10
2018-10-01T11:50:00.891Z,2.50
2018-10-01T11:51:00.521Z,2.30
2018-10-01T11:52:01.340Z,2.80
2018-10-01T11:53:01.154Z,2.40
2018-10-01T11:54:00.732Z,3.50
2018-10-01T11:55:01.974Z,4.30
2018-10-01T11:56:02.359Z,5.00
2018-10-01T11:57:01.951Z,2.70
2018-10-01T11:58:02.788Z,2.30
2018-10-01T11:59:02.920Z,3.00
2018-10-01T12:00:02.492Z,3.90
2018-10-01T12:01:03.417Z,2.70
2018-10-01T12:02:04.050Z,3.70
2018-10-01T12:03:03.678Z,2.70
2018-10-01T12:04:04.279Z,2.90
2018-10-01T12:05:04.076Z,3.50
2018-10-01T12:06:03.969Z,3.00
2018-10-01T12:07:04.241Z,5.40
2018-10-01T12:08:04.576Z,3.70
2018-10-01T12:09:04.815Z,5.00
2018-10-01T12:10:05.099Z,2.30
2018-10-01T12:11:05.401Z,2.30
2018-10-01T12:12:05.586Z,4.50
2018-10-01T12:13:06.116Z,3.40
2018-10-01T12:14:05.988Z,3.30
2018-10-01T12:15:06.155Z,2.70
2018-10-01T12:16:06.631Z,2.70
2018-10-01T12:17:07.067Z,2.50
2018-10-01T12:18:06.637Z,3.90
2018-10-01T12:19:07.041Z,2.30
2018-10-01T12:20:07.409Z,2.70
2018-10-01T12:21:07.767Z,2.70
2018-10-01T12:22:08.251Z,3.30
2018-10-01T12:23:08.600Z,1.50
2018-10-01T12:24:08.981Z,2.80
2018-10-01T12:25:09.481Z,3.80
2018-10-01T12:26:09.876Z,2.30
2018-10-01T12:27:10.286Z,1.90
2018-10-01T12:28:10.334Z,1.90
2018-10-01T12:29:10.970Z,2.10
2018-10-01T12:30:10.448Z,2.60
2018-10-01T12:31:10.900Z,4.90
2018-10-01T12:32:11.221Z,3.80
2018-10-01T12:33:11.405Z,2.90
2018-10-01T12:34:11.735Z,2.80
2018-10-01T12:35:12.178Z,2.40
2018-10-01T12:36:12.148Z,2.60
2018-10-01T12:37:12.523Z,2.50
2018-10-01T12:39:13.417Z,3.00
2018-10-01T12:40:13.173Z,1.90
2018-10-01T12:41:13.688Z,2.10
2018-10-01T12:42:13.530Z,4.00
2018-10-01T12:43:14.365Z,1.50
2018-10-01T12:44:14.203Z,2.40
2018-10-01T12:45:14.524Z,3.00
2018-10-01T12:46:14.894Z,1.30
2018-10-01T12:47:14.741Z,2.30
2018-10-01T12:48:15.252Z,1.70
2018-10-01T12:49:16.157Z,2.70
2018-10-01T12:50:16.552Z,1.30
2018-10-01T12:51:16.676Z,3.80
2018-10-01T12:52:16.994Z,2.20
2018-10-01T12:53:16.615Z,3.10
2018-10-01T12:54:17.355Z,2.20
2018-10-01T12:55:17.676Z,3.10
2018-10-01T12:56:18.147Z,2.50
2018-10-01T12:57:18.723Z,2.90
2018-10-01T12:58:18.760Z,4.20
2018-10-01T12:59:19.077Z,2.50
2018-10-01T13:00:19.666Z,2.10
2018-10-01T13:01:19.673Z,2.60
2018-10-01T13:02:19.417Z,2.50
2018-10-01T13:03:19.702Z,2.50
2018-10-01T13:04:20.159Z,1.60
2018-10-01T13:05:19.883Z,1.40
2018-10-01T13:06:20.981Z,3.00
2018-10-01T13:07:21.125Z,1.60
2018-10-01T13:08:20.827Z,2.60
2018-10-01T13:09:21.770Z,2.60
2018-10-01T13:10:22.303Z,3.40
2018-10-01T13:11:22.244Z,3.20
2018-10-01T13:12:22.606Z,2.20
2018-10-01T13:13:22.890Z,2.10
2018-10-01T13:14:22.547Z,3.20
2018-10-01T13:15:23.224Z,3.00
2018-10-01T13:16:23.725Z,3.00
2018-10-01T13:17:23.236Z,1.70
2018-10-01T13:18:24.242Z,2.00